Oxford, Nebraska
Current Conditions -  °F | °C
As of 3:15 PM on Tuesday 21 Oct 2014 (Local Time) from KHDE Reporting Station
Clear Clear  
Wind Chill: 74°   Ceiling: Unl
Heat Index: 74°   Visibility: 10mi
Dew Point: 51°   Wind: 17mph
Humidity: 44%   Direction: 170°S
Pressure: 29.98"   Gusts: 23mph
Location:  40.25°N, 99.63°W
Report Text: KHDE 212015Z AUTO 17015G20KT 10SM CLR 24/11 A2998 RMK AO2 T02350106
Loading
Personal Weather Stations






























Interactive Weather Map
Tropical Storm Tracking
New forecast layout! Learn more

10-Day Weather Forecast

Advertisements
Track Severe Weather on mobile